Latest Coastal Weather Observations for Melbourne

IDV60701

Issued at 9:25 am EDT Thursday 23 October 2014 (issued every 10 minutes, with the page automatically refreshed every 10 minutes)

About coastal observations | Map of coastal stations | Coastal observations for VIC | Marine services | Other Formats
Station Details ID: 086071 Name: MELBOURNE REGIONAL OFFICE Lat: -37.81 Lon: 144.97 Height: 31.15 m
Data from the previous 72 hours. | See also: Recent months at Melbourne
Date/Time
EDT
Temp

°C
Wind Pressure Rain
since 9am
mm
Weather Cloud Vis
km
Sea
Height
m
Swell
Dir
 
Speed
knots
Gust
knots
hPa Trend Height
m
Period
s
Dir
23/09:00am 15.3 - - - 1020.4 - 0.0 - - - - - - -
23/08:30am 15.3 - - - 1020.4 - 0.0 - - - - - - -
23/08:00am 15.9 - - - 1020.1 - 0.0 - - - - - - -
23/07:30am 16.2 - - - 1019.9 - 0.0 - - - - - - -
23/07:00am 15.9 - - - 1019.6 - 0.0 - - - - - - -
23/06:30am 15.7 - - - 1019.4 - 0.0 - - - - - - -
23/06:00am 15.8 - - - 1019.1 - 0.0 - - - - - - -
23/05:30am 15.9 - - - 1018.7 - 0.0 - - - - - - -
23/05:00am 15.8 - - - 1018.5 - 0.0 - - - - - - -
23/04:30am 15.6 - - - 1018.5 - 0.0 - - - - - - -
23/04:00am 15.7 - - - 1018.3 - 0.0 - - - - - - -
23/03:30am 15.8 - - - 1018.6 - 0.0 - - - - - - -
23/03:00am 15.5 - - - 1019.0 - 0.0 - - - - - - -
23/02:30am 15.8 - - - 1019.1 - 0.0 - - - - - - -
23/02:00am 15.9 - - - 1019.2 - 0.0 - - - - - - -
23/01:30am 16.3 - - - 1019.3 - 0.0 - - - - - - -
23/01:00am 16.3 - - - 1018.9 - 0.0 - - - - - - -
23/12:30am 16.2 - - - 1018.8 - 0.0 - - - - - - -
23/12:00am 16.4 - - - 1018.8 - 0.0 - - - - - - -
 
Date/Time
EDT
Temp

°C
Wind Pressure Rain
since 9am
mm
Weather Cloud Vis
km
Sea
Height
m
Swell
Dir
 
Speed
knots
Gust
knots
hPa Trend Height
m
Period
s
Dir
22/11:30pm 16.3 - - - 1018.6 - 0.0 - - - - - - -
22/11:00pm 17.4 - - - 1018.4 - 0.0 - - - - - - -
22/10:30pm 18.4 - - - 1018.5 - 0.0 - - - - - - -
22/10:00pm 20.5 - - - 1018.3 - 0.0 - - - - - - -
22/09:30pm 21.4 - - - 1017.9 - 0.0 - - - - - - -
22/09:00pm 22.6 - - - 1016.7 - 0.0 - - - - - - -
22/08:30pm 27.0 - - - 1015.6 - 0.0 - - - - - - -
22/08:00pm 28.4 - - - 1014.9 - 0.0 - - - - - - -
22/07:30pm 28.9 - - - 1014.6 - 0.0 - - - - - - -
22/07:00pm 29.3 - - - 1014.1 - 0.0 - - - - - - -
22/06:30pm 29.9 - - - 1014.0 - 0.0 - - - - - - -
22/06:00pm 29.8 - - - 1014.1 - 0.0 - - - - - - -
22/05:30pm 30.0 - - - 1014.5 - 0.0 - - - - - - -
22/05:00pm 30.4 - - - 1014.7 - 0.0 - - - - - - -
22/04:30pm 30.3 - - - 1014.6 - 0.0 - - - - - - -
22/04:00pm 30.7 - - - 1014.9 - 0.0 - - - - - - -
22/03:30pm 31.1 - - - 1015.0 - 0.0 - - - - - - -
22/03:00pm 31.0 - - - 1015.3 F 0.0 Fine Mostly cloudy 30 - - - -
22/02:30pm 31.0 - - - 1015.8 - 0.0 - - - - - - -
22/02:00pm 30.0 - - - 1016.2 - 0.0 - - - - - - -
22/01:30pm 29.2 - - - 1016.7 - 0.0 - - - - - - -
22/01:00pm 29.0 - - - 1017.1 - 0.0 - - - - - - -
22/12:30pm 27.2 - - - 1017.7 - 0.0 - - - - - - -
22/12:00pm 26.4 - - - 1018.1 F 0.0 Fine Partly cloudy 30 - - - -
22/11:30am 26.0 - - - 1018.8 - 0.0 - - - - - - -
22/11:00am 24.5 - - - 1019.3 - 0.0 - - - - - - -
22/10:30am 23.7 - - - 1019.6 - 0.0 - - - - - - -
22/10:00am 22.7 - - - 1019.7 - 0.0 - - - - - - -
22/09:30am 22.2 - - - 1019.6 - 0.0 - - - - - - -
22/09:00am 21.2 - - - 1019.6 F 0.0 Fine Mostly clear 30 - - - -
22/08:30am 20.6 - - - 1019.5 - 0.0 - - - - - - -
22/08:00am 19.5 - - - 1019.7 - 0.0 - - - - - - -
22/07:30am 18.7 - - - 1019.8 - 0.0 - - - - - - -
22/07:00am 18.4 - - - 1019.8 - 0.0 - - - - - - -
22/06:30am 18.5 - - - 1019.8 - 0.0 - - - - - - -
22/06:00am 18.5 - - - 1019.8 - 0.0 - - - - - - -
22/05:30am 18.5 - - - 1019.6 - 0.0 - - - - - - -
22/05:00am 18.3 - - - 1019.5 - 0.0 - - - - - - -
22/04:30am 18.3 - - - 1019.5 - 0.0 - - - - - - -
22/04:00am 18.5 - - - 1019.6 - 0.0 - - - - - - -
22/03:30am 18.5 - - - 1020.0 - 0.0 - - - - - - -
22/03:00am 17.2 - - - 1020.3 - 0.0 - - - - - - -
22/02:30am 17.5 - - - 1020.5 - 0.0 - - - - - - -
22/02:00am 17.5 - - - 1020.7 - 0.0 - - - - - - -
22/01:30am 17.9 - - - 1020.9 - 0.0 - - - - - - -
22/01:00am 18.7 - - - 1021.3 - 0.0 - - - - - - -
22/12:30am 18.9 - - - 1021.7 - 0.0 - - - - - - -
22/12:00am 20.2 - - - 1022.1 - 0.0 - - - - - - -
 
Date/Time
EDT
Temp

°C
Wind Pressure Rain
since 9am
mm
Weather Cloud Vis
km
Sea
Height
m
Swell
Dir
 
Speed
knots
Gust
knots
hPa Trend Height
m
Period
s
Dir
21/11:30pm 19.9 - - - 1022.3 - 0.0 - - - - - - -
21/11:00pm 20.5 - - - 1022.5 - 0.0 - - - - - - -
21/10:30pm 21.7 - - - 1022.6 - 0.0 - - - - - - -
21/10:00pm 21.2 - - - 1022.6 - 0.0 - - - - - - -
21/09:30pm 22.3 - - - 1022.4 - 0.0 - - - - - - -
21/09:00pm 22.5 - - - 1022.2 - 0.0 - - - - - - -
21/08:30pm 23.1 - - - 1022.1 - 0.0 - - - - - - -
21/08:00pm 23.8 - - - 1022.1 - 0.0 - - - - - - -
21/07:30pm 24.4 - - - 1021.9 - 0.0 - - - - - - -
21/07:00pm 25.2 - - - 1021.8 - 0.0 - - - - - - -
21/06:30pm 26.5 - - - 1021.7 - 0.0 - - - - - - -
21/06:00pm 28.1 - - - 1021.7 - 0.0 - - - - - - -
21/05:30pm 28.0 - - - 1021.7 - 0.0 - - - - - - -
21/05:00pm 28.2 - - - 1021.9 - 0.0 - - - - - - -
21/04:30pm 27.9 - - - 1022.0 - 0.0 - - - - - - -
21/04:00pm 27.8 - - - 1022.3 - 0.0 - - - - - - -
21/03:30pm 27.9 - - - 1022.8 - 0.0 - - - - - - -
21/03:00pm 27.2 - - - 1023.3 F 0.0 Fine Mostly clear 30 - - - -
21/02:30pm 26.7 - - - 1023.7 - 0.0 - - - - - - -
21/02:00pm 26.5 - - - 1024.3 - 0.0 - - - - - - -
21/01:30pm 25.4 - - - 1024.7 - 0.0 - - - - - - -
21/01:00pm 24.4 - - - 1025.1 - 0.0 - - - - - - -
21/12:30pm 23.0 - - - 1025.4 - 0.0 - - - - - - -
21/12:00pm 22.1 - - - 1025.9 F 0.0 Haze Mostly clear 30 - - - -
21/11:30am 20.9 - - - 1026.4 - 0.0 - - - - - - -
21/11:00am 19.8 - - - 1026.7 - 0.0 - - - - - - -
21/10:30am 18.6 - - - 1027.0 - 0.0 - - - - - - -
21/10:00am 17.0 - - - 1027.4 - 0.0 - - - - - - -
21/09:30am 15.3 - - - 1027.5 - 0.0 - - - - - - -
21/09:00am 14.2 - - - 1027.5 R 0.0 Haze Mostly clear 25 - - - -
21/08:30am 12.5 - - - 1027.5 - 0.0 - - - - - - -
21/08:00am 11.0 - - - 1027.2 - 0.0 - - - - - - -
21/07:30am 9.2 - - - 1027.0 - 0.0 - - - - - - -
21/07:00am 8.5 - - - 1026.7 - 0.0 - - - - - - -
21/06:30am 8.4 - - - 1026.7 - 0.0 - - - - - - -
21/06:00am 8.6 - - - 1026.3 - 0.0 - - - - - - -
21/05:30am 9.1 - - - 1026.1 - 0.0 - - - - - - -
21/05:00am 9.0 - - - 1026.2 - 0.0 - - - - - - -
21/04:30am 9.4 - - - 1026.1 - 0.0 - - - - - - -
21/04:00am 9.6 - - - 1026.2 - 0.0 - - - - - - -
21/03:30am 10.0 - - - 1026.2 - 0.0 - - - - - - -
21/03:00am 10.0 - - - 1026.4 - 0.0 - - - - - - -
21/02:30am 10.2 - - - 1026.4 - 0.0 - - - - - - -
21/02:00am 11.0 - - - 1026.6 - 0.0 - - - - - - -
21/01:30am 11.3 - - - 1026.8 - 0.0 - - - - - - -
21/01:00am 11.5 - - - 1027.0 - 0.0 - - - - - - -
21/12:30am 11.9 - - - 1027.0 - 0.0 - - - - - - -
21/12:00am 12.8 - - - 1027.1 - 0.0 - - - - - - -
 
Date/Time
EDT
Temp

°C
Wind Pressure Rain
since 9am
mm
Weather Cloud Vis
km
Sea
Height
m
Swell
Dir
 
Speed
knots
Gust
knots
hPa Trend Height
m
Period
s
Dir
20/11:30pm 13.1 - - - 1027.3 - 0.0 - - - - - - -
20/11:00pm 13.4 - - - 1027.3 - 0.0 - - - - - - -
20/10:30pm 13.7 - - - 1027.3 - 0.0 - - - - - - -
20/10:00pm 14.2 - - - 1027.4 - 0.0 - - - - - - -
20/09:30pm 14.7 - - - 1027.3 - 0.0 - - - - - - -
20/09:00pm 15.2 - - - 1027.3 - 0.0 - - - - - - -
20/08:30pm 15.8 - - - 1026.9 - 0.0 - - - - - - -
20/08:00pm 16.6 - - - 1026.7 - 0.0 - - - - - - -
20/07:30pm 17.3 - - - 1026.6 - 0.0 - - - - - - -
20/07:00pm 18.4 - - - 1026.4 - 0.0 - - - - - - -
20/06:30pm 19.5 - - - 1026.3 - 0.0 - - - - - - -
20/06:00pm 20.6 - - - 1026.4 - 0.0 - - - - - - -
20/05:30pm 20.5 - - - 1026.5 - 0.0 - - - - - - -
20/05:00pm 20.4 - - - 1026.4 - 0.0 - - - - - - -
20/04:30pm 20.4 - - - 1026.6 - 0.0 - - - - - - -
20/04:00pm 20.4 - - - 1026.7 - 0.0 - - - - - - -
20/03:30pm 20.3 - - - 1027.1 - 0.0 - - - - - - -
20/03:00pm 20.2 - - - 1027.3 F 0.0 Fine Mostly clear 30 - - - -
20/02:30pm 19.9 - - - 1027.6 - 0.0 - - - - - - -
20/02:00pm 18.7 - - - 1027.9 - 0.0 - - - - - - -
20/01:30pm 18.6 - - - 1028.3 - 0.0 - - - - - - -
20/01:00pm 18.5 - - - 1028.5 - 0.0 - - - - - - -
20/12:30pm 17.9 - - - 1028.9 - 0.0 - - - - - - -
20/12:00pm 17.1 - - - 1029.3 F 0.0 Fine Mostly clear 30 - - - -
20/11:30am 16.4 - - - 1029.6 - 0.0 - - - - - - -
20/11:00am 15.5 - - - 1029.8 - 0.0 - - - - - - -
20/10:30am 15.6 - - - 1030.1 - 0.0 - - - - - - -
20/10:00am 14.9 - - - 1030.3 - 0.0 - - - - - - -
20/09:30am 13.2 - - - 1030.5 - 0.0 - - - - - - -

Other Formats:

Comma delimited format used in spreadsheet applications
http://www.bom.gov.au/fwo/IDV60701/IDV60701.94868.axf

JavaScript Object Notation format (JSON) in row-major order
http://www.bom.gov.au/fwo/IDV60701/IDV60701.94868.json